メインページ
METAR-TAF:

METAR-TAF

空港 :

ザグレブ, クロアチア

ザグレブ国際空港

緯度: 45-44N, 経度: 016-04E, 海抜: 106m

現時点の気象観測

当レポートは18分前の15:30(UTC)に作成
北東の風 4kt、から東/南東の間で変化する
気温 24°C
湿度 36%
気圧 1026 hPa
視程10km以上
1,500メートル以下は雲なし、積乱雲なし

METAR: LDZA 191530Z 05004KT 360V120 CAVOK 24/08 Q1026 NOSIG

時間: 17:48 (15:48 UTC)

予報

当レポートは4時間23分前の11:25(UTC)に作成
予報は19日の 12時(UTC)から 20日の 12時(UTC)まで有効
北東の風 5kt
視程10km以上
1,500メートル以下は雲なし、積乱雲なし

TAF: LDZA 191125Z 1912/2012 05005KT CAVOK TX23/1913Z TN10/2002Z

4,000以上の空港の気象観測と天気予報(METAR報とTAF報)

利用可能な観測所は地図上に黄色い丸と赤い丸で示す。

丸の上にカーソルを重ねると観測所名を参照できる。

次にクリックすると気象観測と天気予報を参照できる。

マップの切り替え:黒色「×」印の緑ボタンをクリックして拡大、「-」印の緑ボタンをクリックして縮小、緑色の三角印をクリックして隣りの地図に切り替え


METAR-TAF: